Time;durP1;ratioP1;P1;durP2;ratioP2;P2;SDS_P1;SDS_P2;PMS_P1;PMS_P2;Temp;Humidity;BMP_temperature;BMP_pressure;BME280_temperature;BME280_humidity;BME280_pressure;Samples;Min_cycle;Max_cycle;Signal;HPM_P1;HPM_P2
2022/06/25 00:01:17;;;;;;;18.27;3.30;;;;;;;18.88;100.00;97637.22;5009864;28;20030;-57
2022/06/25 00:03:42;;;;;;;15.93;2.80;;;;;;;18.91;100.00;97652.81;5009856;28;20150;-58
2022/06/25 00:06:08;;;;;;;19.90;3.40;;;;;;;18.93;100.00;97652.69;5008201;28;20041;-56
2022/06/25 00:08:35;;;;;;;23.27;3.65;;;;;;;18.69;100.00;97645.75;5009298;28;20808;-59
2022/06/25 00:11:01;;;;;;;25.83;3.80;;;;;;;18.87;100.00;97654.88;5007326;28;20140;-57
2022/06/25 00:13:26;;;;;;;16.00;3.13;;;;;;;18.89;100.00;97652.09;5010159;28;20121;-58
2022/06/25 00:15:52;;;;;;;21.13;3.35;;;;;;;18.77;100.00;97648.63;5009132;28;20091;-57
2022/06/25 00:18:17;;;;;;;22.48;3.50;;;;;;;18.74;100.00;97653.31;5009156;28;20086;-57
2022/06/25 00:20:44;;;;;;;19.52;3.50;;;;;;;18.82;100.00;97656.19;5007242;28;20087;-58
2022/06/25 00:23:10;;;;;;;23.23;3.67;;;;;;;18.89;100.00;97649.47;5008948;28;20036;-59
2022/06/25 00:25:35;;;;;;;21.38;3.53;;;;;;;18.76;100.00;97651.38;5007453;28;20030;-57
2022/06/25 00:28:01;;;;;;;23.08;3.78;;;;;;;18.80;100.00;97655.44;5008831;28;20098;-59
2022/06/25 00:30:28;;;;;;;24.85;4.20;;;;;;;18.74;100.00;97654.16;5007913;28;20026;-58
2022/06/25 00:32:53;;;;;;;22.75;3.63;;;;;;;18.74;100.00;97654.16;5010283;28;21127;-59
2022/06/25 00:35:19;;;;;;;23.75;3.75;;;;;;;18.66;100.00;97657.41;5009616;28;20494;-58
2022/06/25 00:37:44;;;;;;;18.63;3.53;;;;;;;18.49;100.00;97657.91;5009208;28;20037;-58
2022/06/25 00:40:10;;;;;;;34.17;5.00;;;;;;;18.75;100.00;97655.84;5007425;28;20493;-58
2022/06/25 00:42:36;;;;;;;24.90;3.83;;;;;;;18.59;100.00;97650.09;5008466;28;20626;-58
2022/06/25 00:45:02;;;;;;;19.48;3.45;;;;;;;18.85;100.00;97655.97;5010572;28;20989;-57
2022/06/25 00:47:27;;;;;;;20.42;3.53;;;;;;;18.67;100.00;97663.50;5009429;28;20096;-58
2022/06/25 00:49:53;;;;;;;22.27;3.78;;;;;;;18.64;100.00;97675.19;5008830;28;20400;-56
2022/06/25 00:52:20;;;;;;;24.55;3.72;;;;;;;18.29;100.00;97665.59;5008652;28;20042;-57
2022/06/25 00:54:51;;;;;;;20.65;3.72;;;;;;;18.53;100.00;97661.13;5009055;28;20026;-58
2022/06/25 00:57:24;;;;;;;21.17;3.63;;;;;;;18.41;100.00;97671.69;5008824;28;20817;-57
2022/06/25 00:59:51;;;;;;;25.30;3.78;;;;;;;18.54;100.00;97668.09;5007143;28;20052;-57
2022/06/25 01:02:20;;;;;;;18.63;3.63;;;;;;;18.58;100.00;97672.16;5007038;28;20029;-58
2022/06/25 01:04:46;;;;;;;27.20;4.22;;;;;;;18.65;100.00;97676.84;5008497;28;20041;-59
2022/06/25 01:07:11;;;;;;;20.30;3.45;;;;;;;18.56;100.00;97677.56;5009045;28;20038;-58
2022/06/25 01:09:38;;;;;;;21.67;3.60;;;;;;;19.03;100.00;97686.19;5008520;28;20454;-57
2022/06/25 01:12:04;;;;;;;22.40;3.78;;;;;;;18.67;100.00;97684.66;5005436;28;20722;-60
2022/06/25 01:14:29;;;;;;;17.00;3.10;;;;;;;18.64;100.00;97693.66;5009186;28;20042;-60
2022/06/25 01:16:55;;;;;;;21.17;4.07;;;;;;;18.71;100.00;97690.53;5009311;28;20034;-58
2022/06/25 01:19:21;;;;;;;15.25;3.25;;;;;;;18.67;100.00;97695.22;5006892;28;20041;-60
2022/06/25 01:21:46;;;;;;;19.83;3.65;;;;;;;18.53;100.00;97703.38;5005065;28;20033;-59
2022/06/25 01:24:12;;;;;;;21.92;3.60;;;;;;;18.43;100.00;97708.53;5007686;28;20080;-58
2022/06/25 01:26:39;;;;;;;15.90;3.15;;;;;;;18.32;100.00;97712.00;5007624;28;20042;-58
2022/06/25 01:29:05;;;;;;;21.60;3.75;;;;;;;18.45;100.00;97711.91;5008541;28;20029;-58
2022/06/25 01:31:31;;;;;;;19.33;3.50;;;;;;;18.21;100.00;97720.75;5008185;28;20502;-58
2022/06/25 01:33:58;;;;;;;21.83;3.83;;;;;;;18.26;100.00;97723.06;5008096;28;20479;-58
2022/06/25 01:36:24;;;;;;;23.52;4.13;;;;;;;18.32;100.00;97719.09;5008467;28;20497;-58
2022/06/25 01:38:49;;;;;;;22.60;4.00;;;;;;;18.37;100.00;97725.72;5011032;28;20021;-58
2022/06/25 01:41:15;;;;;;;18.20;3.50;;;;;;;18.44;100.00;97726.09;5012458;28;20044;-58
2022/06/25 01:43:40;;;;;;;27.48;4.47;;;;;;;18.52;100.00;97715.75;5014369;28;20033;-58
2022/06/25 01:46:06;;;;;;;26.63;4.30;;;;;;;18.34;100.00;97715.38;5011094;28;20119;-57
2022/06/25 01:48:32;;;;;;;23.08;4.22;;;;;;;18.56;100.00;97716.34;5013444;28;20116;-57
2022/06/25 01:50:57;;;;;;;24.63;4.60;;;;;;;18.49;100.00;97713.38;5010124;28;20060;-58
2022/06/25 01:53:22;;;;;;;22.25;4.30;;;;;;;18.14;100.00;97719.56;5011658;28;20108;-57
2022/06/25 01:55:48;;;;;;;24.00;4.05;;;;;;;18.19;100.00;97722.69;5014438;28;20034;-57
2022/06/25 01:58:13;;;;;;;24.95;4.35;;;;;;;18.39;100.00;97728.22;5010747;28;20361;-57
2022/06/25 02:00:39;;;;;;;24.55;4.45;;;;;;;18.30;100.00;97719.22;5010204;28;20029;-57
2022/06/25 02:03:05;;;;;;;26.67;4.72;;;;;;;18.25;100.00;97718.72;5013065;28;20075;-57
2022/06/25 02:08:16;;;;;;;24.85;4.50;;;;;;;18.25;100.00;97722.22;5011216;28;20546;-60
2022/06/25 02:10:44;;;;;;;23.40;4.07;;;;;;;18.23;100.00;97734.69;5009679;28;20156;-59
2022/06/25 02:13:10;;;;;;;19.90;3.65;;;;;;;18.28;100.00;97727.25;5011267;28;20045;-60
2022/06/25 02:15:36;;;;;;;26.20;4.38;;;;;;;18.36;100.00;97728.47;5012170;28;20042;-59
2022/06/25 02:18:02;;;;;;;21.05;4.28;;;;;;;18.17;100.00;97729.03;5011806;28;20029;-60
2022/06/25 02:20:27;;;;;;;23.60;4.60;;;;;;;18.07;100.00;97736.81;5011392;28;20037;-59
2022/06/25 02:22:53;;;;;;;20.17;3.63;;;;;;;18.39;100.00;97744.06;5011574;28;20083;-58
2022/06/25 02:25:18;;;;;;;21.40;4.20;;;;;;;18.38;100.00;97742.38;5019196;28;20459;-57
2022/06/25 02:27:44;;;;;;;18.30;4.00;;;;;;;18.38;100.00;97742.38;5011492;28;20056;-59
2022/06/25 02:30:10;;;;;;;30.58;5.03;;;;;;;18.29;100.00;97739.50;5009589;28;20045;-59
2022/06/25 02:32:36;;;;;;;23.15;4.28;;;;;;;18.52;100.00;97734.25;5008810;28;20030;-62
2022/06/25 02:35:01;;;;;;;23.05;3.95;;;;;;;18.51;100.00;97732.56;5011545;28;20030;-57
2022/06/25 02:37:27;;;;;;;27.25;4.32;;;;;;;18.48;100.00;97743.38;5009787;28;20048;-57
2022/06/25 02:39:52;;;;;;;19.52;3.67;;;;;;;18.90;100.00;97730.44;5010970;28;20026;-60
2022/06/25 02:42:18;;;;;;;19.25;3.40;;;;;;;18.63;100.00;97731.59;5009103;28;20057;-57
2022/06/25 02:44:43;;;;;;;27.83;4.60;;;;;;;18.43;100.00;97734.94;5009818;28;20033;-58
2022/06/25 02:47:09;;;;;;;19.45;3.70;;;;;;;18.26;100.00;97739.72;5010531;28;20056;-57
2022/06/25 02:49:34;;;;;;;22.15;3.78;;;;;;;18.50;100.00;97739.63;5010904;28;20444;-57
2022/06/25 02:52:00;;;;;;;22.13;3.97;;;;;;;18.25;100.00;97745.97;5009988;28;20041;-56
2022/06/25 02:54:25;;;;;;;20.08;3.80;;;;;;;18.33;100.00;97747.19;5010502;28;20029;-58
2022/06/25 02:59:39;;;;;;;23.08;4.28;;;;;;;18.38;100.00;97748.53;5010488;28;20776;-57
2022/06/25 03:02:04;;;;;;;21.40;3.95;;;;;;;18.05;100.00;97744.03;5008763;28;20739;-57
2022/06/25 03:04:30;;;;;;;19.13;3.60;;;;;;;18.49;100.00;97751.19;5010460;28;20718;-57
2022/06/25 03:06:55;;;;;;;21.48;3.92;;;;;;;18.30;100.00;97745.63;5009874;28;20052;-57
2022/06/25 03:09:21;;;;;;;24.27;3.92;;;;;;;18.28;100.00;97743.09;5011564;28;20462;-58
2022/06/25 03:11:47;;;;;;;21.77;4.15;;;;;;;17.96;100.00;97749.97;5008282;28;20049;-57
2022/06/25 03:14:12;;;;;;;25.73;4.10;;;;;;;18.38;100.00;97750.31;5009135;28;20022;-57
2022/06/25 03:16:38;;;;;;;23.23;4.00;;;;;;;18.03;100.00;97754.69;5009868;28;20041;-57
2022/06/25 03:19:03;;;;;;;27.52;4.43;;;;;;;18.19;100.00;97749.06;5011064;28;20092;-57
2022/06/25 03:21:29;;;;;;;27.45;4.00;;;;;;;17.97;100.00;97754.31;5010192;28;20514;-58
2022/06/25 03:23:54;;;;;;;28.33;4.43;;;;;;;18.18;100.00;97759.75;5009992;28;20525;-57
2022/06/25 03:26:19;;;;;;;21.38;3.88;;;;;;;18.15;100.00;97747.63;5009861;28;20223;-57
2022/06/25 03:28:45;;;;;;;28.73;4.40;;;;;;;18.03;100.00;97759.09;5010362;28;20030;-59
2022/06/25 03:31:10;;;;;;;24.33;4.30;;;;;;;18.06;100.00;97761.53;5008937;28;20548;-58
2022/06/25 03:33:36;;;;;;;18.90;3.47;;;;;;;18.03;100.00;97759.09;5010188;28;20041;-57
2022/06/25 03:36:01;;;;;;;22.48;3.85;;;;;;;18.31;100.00;97752.59;5011031;28;20449;-57
2022/06/25 03:38:27;;;;;;;22.25;4.05;;;;;;;18.63;100.00;97752.72;5009829;28;20033;-58
2022/06/25 03:41:32;;;;;;;26.70;4.40;;;;;;;18.38;100.00;97760.88;5008936;28;20113;-57
2022/06/25 03:43:37;;;;;;;25.00;4.45;;;;;;;18.42;100.00;97768.44;5010943;28;20034;-57
2022/06/25 03:46:04;;;;;;;22.40;4.00;;;;;;;18.45;100.00;97767.34;5010129;28;20040;-58
2022/06/25 03:48:29;;;;;;;24.90;3.97;;;;;;;18.58;100.00;97762.84;5009876;28;20018;-58
2022/06/25 03:50:54;;;;;;;16.88;3.60;;;;;;;18.83;100.00;97767.06;5010842;28;20049;-57
2022/06/25 03:53:20;;;;;;;27.52;4.43;;;;;;;18.66;100.00;97763.06;5010527;28;20156;-59
2022/06/25 03:55:45;;;;;;;25.25;4.28;;;;;;;18.50;100.00;97773.13;5007782;28;20042;-58
2022/06/25 03:58:11;;;;;;;20.83;3.83;;;;;;;18.24;100.00;97775.97;5010307;28;20081;-57
2022/06/25 04:00:37;;;;;;;18.88;3.70;;;;;;;18.33;100.00;97787.63;5007598;28;20185;-57
2022/06/25 04:03:02;;;;;;;23.58;4.10;;;;;;;18.60;100.00;97789.97;5010133;28;20207;-59
2022/06/25 04:05:28;;;;;;;19.08;3.72;;;;;;;18.71;100.00;97786.50;5008780;28;20053;-57
2022/06/25 04:07:54;;;;;;;20.27;3.85;;;;;;;18.57;100.00;97784.91;5007535;28;20030;-59
2022/06/25 04:10:19;;;;;;;22.95;3.92;;;;;;;18.83;100.00;97785.56;5007714;28;20133;-58
2022/06/25 04:12:44;;;;;;;19.35;3.53;;;;;;;18.53;100.00;97778.19;5008097;28;20022;-58
2022/06/25 04:15:10;;;;;;;21.75;3.88;;;;;;;18.59;100.00;97792.72;5006681;28;20025;-57
2022/06/25 04:17:35;;;;;;;22.65;3.50;;;;;;;18.69;100.00;97797.19;5011226;28;20029;-57
2022/06/25 04:20:02;;;;;;;35.55;5.40;;;;;;;18.27;100.00;97786.31;5008072;28;20053;-58
2022/06/25 04:22:27;;;;;;;21.88;4.00;;;;;;;18.72;100.00;97789.97;5010426;28;20129;-56
2022/06/25 04:24:52;;;;;;;19.73;4.00;;;;;;;18.78;100.00;97781.56;5008528;28;20033;-58
2022/06/25 04:30:03;;;;;;;35.08;5.20;;;;;;;18.52;100.00;97787.06;5009806;28;20103;-59
2022/06/25 04:32:28;;;;;;;19.42;3.75;;;;;;;18.68;100.00;97792.00;5007704;28;20488;-59
2022/06/25 04:34:53;;;;;;;25.23;3.95;;;;;;;18.83;100.00;97790.00;5007943;28;20109;-59
2022/06/25 04:37:19;;;;;;;21.45;3.75;;;;;;;19.35;100.00;97790.31;5009567;28;20056;-60
2022/06/25 04:39:44;;;;;;;23.77;4.03;;;;;;;19.11;100.00;97790.47;5009802;28;20025;-59
2022/06/25 04:42:10;;;;;;;20.23;3.70;;;;;;;18.79;100.00;97799.09;5006928;28;20034;-57
2022/06/25 04:44:35;;;;;;;22.75;3.85;;;;;;;19.04;100.00;97798.91;5008152;28;20847;-59
2022/06/25 04:47:00;;;;;;;25.90;4.10;;;;;;;18.73;100.00;97802.19;5008727;28;20045;-58
2022/06/25 04:49:26;;;;;;;20.42;3.83;;;;;;;18.91;100.00;97798.16;5007715;28;20034;-57
2022/06/25 04:51:51;;;;;;;24.02;4.18;;;;;;;19.16;100.00;97806.81;5006747;28;20040;-57
2022/06/25 04:54:16;;;;;;;26.98;3.92;;;;;;;19.00;100.00;97807.19;5009589;28;20600;-58
2022/06/25 04:56:42;;;;;;;17.17;3.45;;;;;;;18.72;100.00;97805.81;5008651;28;20038;-58
2022/06/25 04:59:07;;;;;;;30.52;4.72;;;;;;;18.91;100.00;97803.44;5009805;28;20852;-57
2022/06/25 05:01:33;;;;;;;20.70;3.70;;;;;;;19.07;100.00;97803.91;5008017;28;20033;-57
2022/06/25 05:03:59;;;;;;;20.08;3.78;;;;;;;19.06;100.00;97810.19;5007412;28;20026;-58
2022/06/25 05:06:24;;;;;;;17.92;3.38;;;;;;;19.21;100.00;97810.78;5012465;28;20033;-57
2022/06/25 05:08:49;;;;;;;22.50;3.85;;;;;;;19.11;100.00;97804.53;5009910;28;20025;-58
2022/06/25 05:11:15;;;;;;;19.70;3.47;;;;;;;19.36;100.00;97802.59;5010850;28;20037;-58
2022/06/25 05:13:40;;;;;;;22.20;3.90;;;;;;;19.18;100.00;97799.59;5012581;28;20633;-59
2022/06/25 05:16:06;;;;;;;28.02;4.05;;;;;;;19.04;100.00;97796.25;5013756;28;20048;-58
2022/06/25 05:18:31;;;;;;;22.48;3.72;;;;;;;19.14;100.00;97792.88;5011312;28;20031;-57
2022/06/25 05:20:56;;;;;;;21.90;3.70;;;;;;;19.25;100.00;97790.22;5003253;28;20053;-58
2022/06/25 05:23:22;;;;;;;18.13;3.30;;;;;;;19.12;100.00;97802.75;5013469;28;20032;-57
2022/06/25 05:25:47;;;;;;;23.77;4.07;;;;;;;19.15;100.00;97797.19;5011671;28;21009;-57
2022/06/25 05:28:15;;;;;;;22.33;3.65;;;;;;;19.11;100.00;97795.75;5012604;28;20641;-57
2022/06/25 05:30:40;;;;;;;22.33;3.88;;;;;;;19.32;100.00;97801.13;5010778;28;20069;-57
2022/06/25 05:33:06;;;;;;;21.58;3.88;;;;;;;19.47;100.00;97797.28;5009794;28;20153;-59
2022/06/25 05:35:31;;;;;;;21.67;3.80;;;;;;;19.47;100.00;97797.28;5013395;28;20113;-59
2022/06/25 05:37:57;;;;;;;24.58;4.15;;;;;;;19.87;100.00;97795.84;5011131;28;20113;-57
2022/06/25 05:40:22;;;;;;;26.20;4.32;;;;;;;19.58;100.00;97807.00;5010670;28;20121;-57
2022/06/25 05:42:48;;;;;;;20.83;3.72;;;;;;;19.52;100.00;97807.47;5013747;28;20085;-58
2022/06/25 05:45:13;;;;;;;20.65;3.78;;;;;;;19.43;100.00;97815.19;5010765;28;20034;-58
2022/06/25 05:47:39;;;;;;;20.40;3.50;;;;;;;19.84;100.00;97812.84;5012840;28;20026;-57
2022/06/25 05:50:05;;;;;;;28.02;4.30;;;;;;;20.11;100.00;97809.72;5009792;28;20111;-57
2022/06/25 05:52:30;;;;;;;22.10;4.25;;;;;;;19.72;100.00;97811.16;5013107;28;20133;-58
2022/06/25 05:54:56;;;;;;;23.50;3.88;;;;;;;19.83;100.00;97819.94;5013682;28;20120;-57
2022/06/25 05:57:21;;;;;;;17.75;3.47;;;;;;;19.79;100.00;97821.13;5012148;28;20061;-57
2022/06/25 05:59:46;;;;;;;20.80;3.47;;;;;;;19.99;100.00;97826.59;5011947;28;20120;-57
2022/06/25 06:02:12;;;;;;;22.75;3.95;;;;;;;20.36;100.00;97821.72;5009436;28;20028;-57
2022/06/25 06:04:37;;;;;;;20.20;3.95;;;;;;;20.06;100.00;97822.50;5013201;28;20033;-57
2022/06/25 06:07:03;;;;;;;18.58;3.60;;;;;;;20.29;100.00;97823.25;5010847;28;20575;-57
2022/06/25 06:09:29;;;;;;;19.73;3.70;;;;;;;20.30;100.00;97824.06;5011139;28;20022;-57
2022/06/25 06:11:55;;;;;;;16.20;3.53;;;;;;;19.99;100.00;97832.72;5013050;28;20590;-57
2022/06/25 06:14:22;;;;;;;14.00;3.00;;;;;;;20.70;100.00;97826.03;5013958;28;20025;-59
2022/06/25 06:16:47;;;;;;;23.25;4.15;;;;;;;20.42;100.00;97828.34;5010672;28;20219;-59
2022/06/25 06:19:13;;;;;;;20.52;3.72;;;;;;;20.75;100.00;97824.66;5009099;28;20105;-59
2022/06/25 06:21:38;;;;;;;19.95;3.97;;;;;;;20.17;100.00;97829.56;5010371;28;20483;-57
2022/06/25 06:24:04;;;;;;;20.42;3.83;;;;;;;20.83;100.00;97825.81;5011099;28;20117;-58
2022/06/25 06:26:29;;;;;;;18.67;3.88;;;;;;;20.30;100.00;97832.03;5011214;28;20420;-59
2022/06/25 06:28:54;;;;;;;22.02;4.22;;;;;;;20.94;100.00;97823.91;5009768;28;20698;-59
2022/06/25 06:31:20;;;;;;;18.13;3.90;;;;;;;20.44;100.00;97837.00;5010122;28;20150;-59
2022/06/25 06:33:45;;;;;;;20.73;4.22;;;;;;;21.09;100.00;97837.66;5010211;28;20511;-58
2022/06/25 06:36:12;;;;;;;25.70;4.40;;;;;;;20.97;100.00;97842.22;5010660;28;20575;-57
2022/06/25 06:38:38;;;;;;;28.73;5.28;;;;;;;20.77;100.00;97837.81;5009663;28;20757;-57
2022/06/25 06:41:03;;;;;;;26.45;4.50;;;;;;;21.01;100.00;97839.28;5008554;28;20061;-58
2022/06/25 06:43:29;;;;;;;22.63;4.03;;;;;;;21.17;100.00;97839.63;5012188;28;20484;-58
2022/06/25 06:45:54;;;;;;;19.27;4.10;;;;;;;20.81;100.00;97844.50;5011687;28;20049;-58
2022/06/25 06:48:19;;;;;;;22.92;4.43;;;;;;;21.15;100.00;97842.41;5009908;28;20124;-58
2022/06/25 06:50:45;;;;;;;20.40;4.13;;;;;;;21.38;100.00;97837.75;5008075;28;20623;-57
2022/06/25 06:53:10;;;;;;;21.25;4.13;;;;;;;21.73;100.00;97840.97;5009447;28;20065;-57
2022/06/25 06:55:35;;;;;;;16.83;3.63;;;;;;;21.83;100.00;97828.53;5012002;28;20034;-58
2022/06/25 06:58:01;;;;;;;21.58;4.28;;;;;;;22.62;100.00;97837.34;5012247;28;20022;-57
2022/06/25 07:00:26;;;;;;;20.45;4.18;;;;;;;22.80;100.00;97824.97;5006204;28;20616;-57
2022/06/25 07:02:52;;;;;;;19.73;3.83;;;;;;;23.68;100.00;97822.78;5012291;28;20030;-59
2022/06/25 07:05:17;;;;;;;22.13;4.30;;;;;;;24.00;100.00;97812.63;5011483;28;20025;-57
2022/06/25 07:07:43;;;;;;;20.08;3.88;;;;;;;25.00;100.00;97813.22;5010457;28;20017;-57
2022/06/25 07:10:09;;;;;;;25.42;5.03;;;;;;;23.21;100.00;97816.75;5011050;28;20113;-57
2022/06/25 07:12:34;;;;;;;15.30;3.63;;;;;;;24.61;100.00;97813.66;5010549;28;20064;-58
2022/06/25 07:14:59;;;;;;;17.27;3.83;;;;;;;23.24;100.00;97817.28;5010562;28;20464;-57
2022/06/25 07:17:25;;;;;;;18.17;4.07;;;;;;;23.72;100.00;97814.50;5010049;28;20037;-57
2022/06/25 07:19:52;;;;;;;18.33;3.88;;;;;;;25.03;100.00;97810.22;5010201;28;20029;-57
2022/06/25 07:22:17;;;;;;;17.50;3.95;;;;;;;26.20;100.00;97811.28;5008669;28;20679;-59
2022/06/25 07:24:42;;;;;;;12.57;3.25;;;;;;;27.68;100.00;97808.25;5010677;28;20034;-58
2022/06/25 07:27:08;;;;;;;15.13;3.53;;;;;;;25.64;100.00;97807.47;5010124;28;20037;-57
2022/06/25 07:29:33;;;;;;;13.00;3.40;;;;;;;26.23;100.00;97810.94;5008755;28;20041;-59
2022/06/25 07:31:59;;;;;;;16.10;3.38;;;;;;;29.29;94.68;97817.13;5009412;28;20042;-58
2022/06/25 07:34:24;;;;;;;16.75;3.78;;;;;;;29.72;76.07;97812.72;5010393;28;20033;-58
2022/06/25 07:36:49;;;;;;;13.98;3.33;;;;;;;28.92;86.16;97810.81;5009134;28;20034;-59
2022/06/25 07:39:15;;;;;;;14.13;3.08;;;;;;;28.66;82.00;97811.25;5008174;28;20590;-59
2022/06/25 07:41:40;;;;;;;19.10;3.58;;;;;;;28.37;73.85;97799.41;5008196;28;20048;-58
2022/06/25 07:44:06;;;;;;;13.40;3.60;;;;;;;30.06;63.10;97797.78;5011825;28;20112;-58
2022/06/25 07:46:31;;;;;;;14.63;3.80;;;;;;;29.31;74.10;97799.81;5009727;28;20053;-58
2022/06/25 07:48:57;;;;;;;12.38;3.10;;;;;;;27.88;78.71;97798.75;5009731;28;20422;-59
2022/06/25 07:54:06;;;;;;;14.98;3.35;;;;;;;28.24;81.35;97803.53;5010854;28;20041;-58
2022/06/25 07:56:31;;;;;;;14.60;3.30;;;;;;;27.92;80.93;97803.78;5009075;28;20041;-57
2022/06/25 07:58:57;;;;;;;14.85;3.42;;;;;;;28.46;80.08;97806.38;5009978;28;20107;-59
2022/06/25 08:01:22;;;;;;;10.48;3.13;;;;;;;29.22;76.59;97806.28;5008436;28;20118;-59
2022/06/25 08:03:47;;;;;;;13.20;3.60;;;;;;;31.10;63.58;97793.63;5010479;28;20037;-59
2022/06/25 08:06:13;;;;;;;12.68;3.50;;;;;;;31.01;63.07;97797.50;5008860;28;20030;-58
2022/06/25 08:08:39;;;;;;;13.88;3.67;;;;;;;30.94;59.71;97790.22;5009355;28;20694;-57
2022/06/25 08:11:05;;;;;;;11.73;3.10;;;;;;;34.23;50.16;97786.38;5007483;28;20037;-57
2022/06/25 08:13:31;;;;;;;12.30;3.58;;;;;;;31.20;51.76;97790.56;5008777;28;20037;-59
2022/06/25 08:15:56;;;;;;;11.73;3.42;;;;;;;32.83;54.07;97788.63;5011243;28;20029;-57
2022/06/25 08:18:22;;;;;;;9.15;3.10;;;;;;;32.31;52.57;97778.66;5009253;28;20037;-59
2022/06/25 08:20:48;;;;;;;10.63;3.30;;;;;;;33.17;49.95;97789.38;5005939;28;20707;-58
2022/06/25 08:23:13;;;;;;;10.65;3.10;;;;;;;31.36;53.50;97781.31;5009268;28;20393;-59
2022/06/25 08:25:39;;;;;;;11.93;3.50;;;;;;;32.18;54.34;97783.00;5006076;28;20120;-58
2022/06/25 08:28:05;;;;;;;17.45;3.72;;;;;;;31.54;54.80;97789.72;5009747;28;20025;-58
2022/06/25 08:30:30;;;;;;;11.70;3.53;;;;;;;33.10;49.81;97788.53;5008194;28;20369;-58
2022/06/25 08:32:56;;;;;;;9.68;3.10;;;;;;;34.00;46.76;97793.16;5010068;28;20439;-57
2022/06/25 08:35:22;;;;;;;10.63;3.20;;;;;;;29.60;53.72;97784.66;5008723;28;20057;-58
2022/06/25 08:37:49;;;;;;;10.15;2.88;;;;;;;33.82;48.35;97785.81;5009164;28;20048;-57
2022/06/25 08:40:16;;;;;;;10.73;3.40;;;;;;;33.25;50.16;97780.22;5007636;28;20116;-57
2022/06/25 08:42:42;;;;;;;10.18;3.05;;;;;;;34.41;46.10;97788.31;5009649;28;20102;-58
2022/06/25 08:45:08;;;;;;;12.35;3.20;;;;;;;32.16;47.92;97776.16;5010299;28;20109;-58
2022/06/25 08:47:39;;;;;;;8.10;2.80;;;;;;;33.95;44.78;97774.88;5015205;28;20701;-57
2022/06/25 08:50:05;;;;;;;13.73;3.97;;;;;;;32.23;47.33;97767.03;5011147;28;20041;-57
2022/06/25 08:52:31;;;;;;;8.45;2.85;;;;;;;32.96;47.46;97773.44;5009637;28;20046;-58
2022/06/25 08:54:57;;;;;;;8.98;3.05;;;;;;;32.72;47.08;97773.06;5011937;28;20045;-57
2022/06/25 08:57:23;;;;;;;11.65;3.40;;;;;;;31.38;49.50;97771.19;5013229;28;20108;-58
2022/06/25 08:59:48;;;;;;;9.68;3.13;;;;;;;32.01;48.26;97760.16;5013421;28;20025;-58
2022/06/25 09:02:14;;;;;;;10.75;3.08;;;;;;;33.97;43.54;97772.78;5012321;28;20083;-60
2022/06/25 09:04:39;;;;;;;12.45;3.55;;;;;;;30.25;49.62;97772.06;5011008;28;20036;-59
2022/06/25 09:07:12;;;;;;;9.25;2.78;;;;;;;31.57;49.65;97765.03;5014112;28;20108;-59
2022/06/25 09:09:38;;;;;;;8.35;2.92;;;;;;;33.88;45.10;97770.56;5011982;28;20054;-59
2022/06/25 09:12:08;;;;;;;13.07;3.40;;;;;;;33.00;47.43;97761.16;5010151;28;20038;-59
2022/06/25 09:14:35;;;;;;;10.90;3.30;;;;;;;32.63;49.71;97760.81;5012871;28;20152;-60
2022/06/25 09:17:04;;;;;;;9.55;2.92;;;;;;;33.67;46.70;97759.03;5012348;28;20042;-60
2022/06/25 09:19:38;;;;;;;10.93;3.40;;;;;;;32.02;47.13;97757.25;5012038;28;20041;-59
2022/06/25 09:22:09;;;;;;;11.48;3.33;;;;;;;35.18;45.60;97760.88;5010929;28;20041;-60
2022/06/25 09:24:57;;;;;;;10.55;3.10;;;;;;;35.75;41.69;97756.03;5011737;28;20657;-58
2022/06/25 09:27:33;;;;;;;7.90;2.63;;;;;;;34.15;45.22;97752.25;5012450;28;20087;-58
2022/06/25 09:30:06;;;;;;;12.55;3.67;;;;;;;34.90;43.58;97751.41;5011332;28;20025;-59
2022/06/25 09:32:45;;;;;;;8.05;2.60;;;;;;;32.26;47.43;97753.13;5011036;28;20033;-59
2022/06/25 09:35:12;;;;;;;9.98;2.92;;;;;;;32.51;47.94;97757.06;5011709;28;20097;-59
2022/06/25 09:37:38;;;;;;;12.93;3.45;;;;;;;30.71;54.47;97763.56;5011531;28;20559;-59
2022/06/25 09:40:04;;;;;;;15.35;4.00;;;;;;;31.50;50.06;97764.19;5009798;28;20462;-58
2022/06/25 09:42:32;;;;;;;10.20;2.85;;;;;;;32.35;44.73;97759.16;5011857;28;20088;-58
2022/06/25 09:45:00;;;;;;;11.23;3.22;;;;;;;32.14;44.57;97753.97;5010453;28;20041;-58
2022/06/25 09:47:27;;;;;;;9.48;2.83;;;;;;;32.15;44.02;97758.31;5010398;28;20037;-58
2022/06/25 09:50:10;;;;;;;11.25;2.70;;;;;;;32.18;44.02;97756.03;5011213;28;20037;-58
2022/06/25 09:52:37;;;;;;;7.93;2.58;;;;;;;32.21;46.27;97757.50;5011000;28;20143;-59
2022/06/25 09:55:04;;;;;;;7.53;2.30;;;;;;;30.63;49.07;97752.13;5012537;28;20029;-57
2022/06/25 09:57:31;;;;;;;9.82;2.70;;;;;;;30.62;50.09;97750.44;5010048;28;20026;-58
2022/06/25 09:59:59;;;;;;;15.52;3.83;;;;;;;29.21;54.23;97750.94;5010629;28;20128;-58
2022/06/25 10:02:29;;;;;;;9.55;2.65;;;;;;;28.61;57.94;97745.53;5010376;28;20069;-58
2022/06/25 10:05:00;;;;;;;11.77;2.70;;;;;;;30.10;54.69;97749.81;5010457;28;20029;-58
2022/06/25 10:07:59;;;;;;;12.02;2.60;;;;;;;29.25;54.03;97738.78;5014044;28;20048;-57
2022/06/25 10:10:18;;;;;;;15.30;3.70;;;;;;;28.76;57.67;97739.34;5010823;28;20092;-57
2022/06/25 10:12:46;;;;;;;10.35;2.65;;;;;;;30.31;57.04;97740.88;5011009;28;20044;-58
2022/06/25 10:15:12;;;;;;;10.50;2.85;;;;;;;30.62;55.17;97736.97;5012938;28;20049;-58
2022/06/25 10:17:39;;;;;;;6.75;2.13;;;;;;;29.10;55.95;97737.97;5010655;28;20103;-58
2022/06/25 10:20:06;;;;;;;18.85;4.05;;;;;;;31.04;50.58;97735.16;5010925;28;20516;-58
2022/06/25 10:22:32;;;;;;;10.02;2.63;;;;;;;31.38;50.03;97731.59;5010550;28;20041;-58
2022/06/25 10:25:00;;;;;;;14.25;3.13;;;;;;;31.56;49.94;97722.97;5012393;28;20041;-58
2022/06/25 10:27:25;;;;;;;12.18;2.90;;;;;;;32.59;45.71;97716.38;5010025;28;20041;-57
2022/06/25 10:30:00;;;;;;;10.65;2.67;;;;;;;33.67;45.56;97733.88;5011047;28;20029;-57
2022/06/25 10:32:27;;;;;;;15.93;3.75;;;;;;;32.40;44.31;97718.03;5009333;28;20064;-58
2022/06/25 10:34:57;;;;;;;11.80;2.90;;;;;;;32.71;43.83;97714.69;5008389;28;20033;-58
2022/06/25 10:37:23;;;;;;;10.65;3.03;;;;;;;33.03;45.86;97712.06;5010112;28;20416;-58
2022/06/25 10:39:53;;;;;;;8.30;2.40;;;;;;;32.55;42.91;97709.72;5012878;28;20022;-57
2022/06/25 10:45:14;;;;;;;8.35;2.45;;;;;;;32.91;45.04;97701.13;5010313;28;20510;-57
2022/06/25 10:47:51;;;;;;;9.55;2.80;;;;;;;31.17;44.20;97697.50;5010351;28;20044;-59
2022/06/25 10:50:20;;;;;;;8.15;2.35;;;;;;;33.19;43.52;97695.41;5010412;28;20076;-58
2022/06/25 10:53:04;;;;;;;13.32;3.10;;;;;;;32.31;43.00;97685.03;5010958;28;20534;-59
2022/06/25 10:55:34;;;;;;;11.30;3.03;;;;;;;32.76;42.83;97682.47;5006996;28;20045;-58
2022/06/25 10:58:24;;;;;;;10.93;2.63;;;;;;;33.08;41.27;97677.16;5009048;28;20061;-59
2022/06/25 11:00:55;;;;;;;11.05;2.70;;;;;;;31.90;42.61;97667.19;5009042;28;20522;-57
2022/06/25 11:03:33;;;;;;;9.45;2.58;;;;;;;32.67;42.54;97672.94;5009061;28;20072;-59
2022/06/25 11:06:19;;;;;;;8.63;2.50;;;;;;;33.21;43.02;97669.03;5009250;28;20120;-58
2022/06/25 11:08:45;;;;;;;10.05;2.60;;;;;;;31.83;43.68;97672.56;5009123;28;20095;-58
2022/06/25 11:11:11;;;;;;;10.38;2.45;;;;;;;31.72;42.92;97666.97;5007793;28;20126;-58
2022/06/25 11:13:41;;;;;;;19.40;3.40;;;;;;;32.32;43.16;97664.28;5009379;28;20087;-57
2022/06/25 11:16:17;;;;;;;10.38;2.50;;;;;;;32.42;42.66;97667.38;5009172;28;20409;-58
2022/06/25 11:19:00;;;;;;;17.92;3.70;;;;;;;31.41;43.41;97660.28;5009348;28;20022;-59
2022/06/25 11:21:31;;;;;;;10.07;2.67;;;;;;;32.59;41.84;97667.78;5009331;28;20153;-58
2022/06/25 11:24:06;;;;;;;;;;;;;;;31.59;43.27;97659.72;5010130;28;20040;-59
2022/06/25 11:29:27;;;;;;;9.57;2.50;;;;;;;32.47;44.62;97660.31;5007239;28;20056;-57
2022/06/25 11:31:53;;;;;;;12.02;2.70;;;;;;;34.15;40.92;97665.66;5009146;28;20664;-58
2022/06/25 11:34:20;;;;;;;9.65;2.47;;;;;;;31.60;43.08;97653.31;5008261;28;20045;-57
2022/06/25 11:36:55;;;;;;;15.27;3.03;;;;;;;31.71;43.68;97655.38;5009261;28;20034;-57